sensor_id;sensor_type;location;lat;lon;timestamp;temperature;humidity
15983;DHT22;14442;50.196;8.096;2023-09-12T00:01:20;22.30;70.80
15983;DHT22;14442;50.196;8.096;2023-09-12T00:03:46;22.30;70.70
15983;DHT22;14442;50.196;8.096;2023-09-12T00:06:13;22.30;70.70
15983;DHT22;14442;50.196;8.096;2023-09-12T00:08:40;22.30;70.70
15983;DHT22;14442;50.196;8.096;2023-09-12T00:11:08;22.30;70.70
15983;DHT22;14442;50.196;8.096;2023-09-12T00:13:39;22.30;70.70
15983;DHT22;14442;50.196;8.096;2023-09-12T00:16:06;22.30;70.70
15983;DHT22;14442;50.196;8.096;2023-09-12T00:18:35;22.30;70.60
15983;DHT22;14442;50.196;8.096;2023-09-12T00:21:01;22.30;70.70
15983;DHT22;14442;50.196;8.096;2023-09-12T00:23:29;22.30;70.60
15983;DHT22;14442;50.196;8.096;2023-09-12T00:25:56;22.30;70.70
15983;DHT22;14442;50.196;8.096;2023-09-12T00:28:23;22.30;70.70
15983;DHT22;14442;50.196;8.096;2023-09-12T00:30:51;22.30;71.10
15983;DHT22;14442;50.196;8.096;2023-09-12T00:33:18;22.30;70.70
15983;DHT22;14442;50.196;8.096;2023-09-12T00:35:45;22.30;70.80
15983;DHT22;14442;50.196;8.096;2023-09-12T00:38:12;22.30;70.70
15983;DHT22;14442;50.196;8.096;2023-09-12T00:40:38;22.30;70.60
15983;DHT22;14442;50.196;8.096;2023-09-12T00:43:05;22.30;70.80
15983;DHT22;14442;50.196;8.096;2023-09-12T00:45:32;22.30;70.70
15983;DHT22;14442;50.196;8.096;2023-09-12T00:48:01;22.30;70.80
15983;DHT22;14442;50.196;8.096;2023-09-12T00:50:30;22.30;70.70
15983;DHT22;14442;50.196;8.096;2023-09-12T00:52:57;22.30;70.70
15983;DHT22;14442;50.196;8.096;2023-09-12T00:55:24;22.30;70.80
15983;DHT22;14442;50.196;8.096;2023-09-12T00:57:51;22.30;70.80
15983;DHT22;14442;50.196;8.096;2023-09-12T01:00:19;22.30;70.70
15983;DHT22;14442;50.196;8.096;2023-09-12T01:02:46;22.30;70.90
15983;DHT22;14442;50.196;8.096;2023-09-12T01:05:16;22.30;70.80
15983;DHT22;14442;50.196;8.096;2023-09-12T01:07:43;22.30;70.90
15983;DHT22;14442;50.196;8.096;2023-09-12T01:10:10;22.30;70.80
15983;DHT22;14442;50.196;8.096;2023-09-12T01:12:36;22.30;70.80
15983;DHT22;14442;50.196;8.096;2023-09-12T01:15:04;22.30;70.90
15983;DHT22;14442;50.196;8.096;2023-09-12T01:17:33;22.30;70.90
15983;DHT22;14442;50.196;8.096;2023-09-12T01:20:01;22.20;70.70
15983;DHT22;14442;50.196;8.096;2023-09-12T01:23:05;22.30;70.80
15983;DHT22;14442;50.196;8.096;2023-09-12T01:26:02;22.30;70.80
15983;DHT22;14442;50.196;8.096;2023-09-12T01:28:34;22.20;70.70
15983;DHT22;14442;50.196;8.096;2023-09-12T01:31:03;22.20;70.80
15983;DHT22;14442;50.196;8.096;2023-09-12T01:33:31;22.20;70.80
15983;DHT22;14442;50.196;8.096;2023-09-12T01:35:59;22.20;70.80
15983;DHT22;14442;50.196;8.096;2023-09-12T01:38:25;22.20;70.80
15983;DHT22;14442;50.196;8.096;2023-09-12T01:40:54;22.20;70.80
15983;DHT22;14442;50.196;8.096;2023-09-12T01:43:24;22.20;70.80
15983;DHT22;14442;50.196;8.096;2023-09-12T01:45:55;22.20;70.80
15983;DHT22;14442;50.196;8.096;2023-09-12T01:48:26;22.20;70.80
15983;DHT22;14442;50.196;8.096;2023-09-12T01:50:54;22.20;70.80
15983;DHT22;14442;50.196;8.096;2023-09-12T01:53:21;22.20;70.80
15983;DHT22;14442;50.196;8.096;2023-09-12T01:55:48;22.20;70.80
15983;DHT22;14442;50.196;8.096;2023-09-12T01:58:15;22.20;70.80
15983;DHT22;14442;50.196;8.096;2023-09-12T02:00:42;22.20;70.80
15983;DHT22;14442;50.196;8.096;2023-09-12T02:03:10;22.20;70.70
15983;DHT22;14442;50.196;8.096;2023-09-12T02:05:37;22.20;70.80
15983;DHT22;14442;50.196;8.096;2023-09-12T02:08:04;22.20;70.80
15983;DHT22;14442;50.196;8.096;2023-09-12T02:10:31;22.20;70.80
15983;DHT22;14442;50.196;8.096;2023-09-12T02:12:58;22.20;70.80
15983;DHT22;14442;50.196;8.096;2023-09-12T02:15:25;22.20;70.80
15983;DHT22;14442;50.196;8.096;2023-09-12T02:17:52;22.10;70.80
15983;DHT22;14442;50.196;8.096;2023-09-12T02:20:20;22.20;70.80
15983;DHT22;14442;50.196;8.096;2023-09-12T02:22:47;22.10;70.70
15983;DHT22;14442;50.196;8.096;2023-09-12T02:25:13;22.20;70.80
15983;DHT22;14442;50.196;8.096;2023-09-12T02:27:40;22.10;70.70
15983;DHT22;14442;50.196;8.096;2023-09-12T02:30:07;22.10;70.70
15983;DHT22;14442;50.196;8.096;2023-09-12T02:32:34;22.10;70.70
15983;DHT22;14442;50.196;8.096;2023-09-12T02:35:01;22.10;70.70
15983;DHT22;14442;50.196;8.096;2023-09-12T02:37:29;22.10;70.70
15983;DHT22;14442;50.196;8.096;2023-09-12T02:39:56;22.10;70.70
15983;DHT22;14442;50.196;8.096;2023-09-12T02:42:23;22.10;70.70
15983;DHT22;14442;50.196;8.096;2023-09-12T02:44:50;22.10;70.70
15983;DHT22;14442;50.196;8.096;2023-09-12T02:47:17;22.20;70.80
15983;DHT22;14442;50.196;8.096;2023-09-12T02:49:44;22.10;70.70
15983;DHT22;14442;50.196;8.096;2023-09-12T02:52:11;22.10;70.70
15983;DHT22;14442;50.196;8.096;2023-09-12T02:54:39;22.10;70.70
15983;DHT22;14442;50.196;8.096;2023-09-12T02:57:05;22.20;70.80
15983;DHT22;14442;50.196;8.096;2023-09-12T02:59:32;22.10;70.70
15983;DHT22;14442;50.196;8.096;2023-09-12T03:01:59;22.10;70.70
15983;DHT22;14442;50.196;8.096;2023-09-12T03:04:26;22.10;70.70
15983;DHT22;14442;50.196;8.096;2023-09-12T03:06:53;22.10;70.70
15983;DHT22;14442;50.196;8.096;2023-09-12T03:09:20;22.10;70.70
15983;DHT22;14442;50.196;8.096;2023-09-12T03:11:49;22.10;70.70
15983;DHT22;14442;50.196;8.096;2023-09-12T03:14:16;22.10;70.70
15983;DHT22;14442;50.196;8.096;2023-09-12T03:16:42;22.10;70.70
15983;DHT22;14442;50.196;8.096;2023-09-12T03:19:09;22.10;70.70
15983;DHT22;14442;50.196;8.096;2023-09-12T03:21:36;22.10;70.70
15983;DHT22;14442;50.196;8.096;2023-09-12T03:24:03;22.10;70.70
15983;DHT22;14442;50.196;8.096;2023-09-12T03:26:30;22.10;70.70
15983;DHT22;14442;50.196;8.096;2023-09-12T03:28:58;22.10;70.70
15983;DHT22;14442;50.196;8.096;2023-09-12T03:31:24;22.10;70.70
15983;DHT22;14442;50.196;8.096;2023-09-12T03:33:51;22.10;70.70
15983;DHT22;14442;50.196;8.096;2023-09-12T03:36:18;22.10;70.70
15983;DHT22;14442;50.196;8.096;2023-09-12T03:38:45;22.10;70.70
15983;DHT22;14442;50.196;8.096;2023-09-12T03:41:11;22.10;70.70
15983;DHT22;14442;50.196;8.096;2023-09-12T03:43:38;22.10;70.80
15983;DHT22;14442;50.196;8.096;2023-09-12T03:46:06;22.10;70.80
15983;DHT22;14442;50.196;8.096;2023-09-12T03:48:33;22.10;70.80
15983;DHT22;14442;50.196;8.096;2023-09-12T03:51:02;22.10;70.80
15983;DHT22;14442;50.196;8.096;2023-09-12T03:53:29;22.10;70.80
15983;DHT22;14442;50.196;8.096;2023-09-12T03:55:57;22.10;70.90
15983;DHT22;14442;50.196;8.096;2023-09-12T03:58:24;22.10;70.90
15983;DHT22;14442;50.196;8.096;2023-09-12T04:00:51;22.10;70.80
15983;DHT22;14442;50.196;8.096;2023-09-12T04:03:19;22.10;70.90
15983;DHT22;14442;50.196;8.096;2023-09-12T04:05:46;22.10;70.90
15983;DHT22;14442;50.196;8.096;2023-09-12T04:08:13;22.10;71.70
15983;DHT22;14442;50.196;8.096;2023-09-12T04:10:40;22.10;70.90
15983;DHT22;14442;50.196;8.096;2023-09-12T04:13:06;22.10;70.90
15983;DHT22;14442;50.196;8.096;2023-09-12T04:15:33;22.10;71.00
15983;DHT22;14442;50.196;8.096;2023-09-12T04:18:00;22.10;71.00
15983;DHT22;14442;50.196;8.096;2023-09-12T04:20:28;22.00;70.90
15983;DHT22;14442;50.196;8.096;2023-09-12T04:22:54;22.00;71.00
15983;DHT22;14442;50.196;8.096;2023-09-12T04:25:21;22.10;71.10
15983;DHT22;14442;50.196;8.096;2023-09-12T04:27:48;22.00;70.90
15983;DHT22;14442;50.196;8.096;2023-09-12T04:30:14;22.10;71.00
15983;DHT22;14442;50.196;8.096;2023-09-12T04:32:41;22.00;70.90
15983;DHT22;14442;50.196;8.096;2023-09-12T04:35:08;22.00;70.90
15983;DHT22;14442;50.196;8.096;2023-09-12T04:37:36;22.00;70.90
15983;DHT22;14442;50.196;8.096;2023-09-12T04:40:04;22.00;70.90
15983;DHT22;14442;50.196;8.096;2023-09-12T04:42:32;22.00;70.90
15983;DHT22;14442;50.196;8.096;2023-09-12T04:44:58;22.00;71.00
15983;DHT22;14442;50.196;8.096;2023-09-12T04:47:25;22.00;71.00
15983;DHT22;14442;50.196;8.096;2023-09-12T04:49:53;22.00;71.00
15983;DHT22;14442;50.196;8.096;2023-09-12T04:52:19;22.00;70.90
15983;DHT22;14442;50.196;8.096;2023-09-12T04:54:47;22.00;70.90
15983;DHT22;14442;50.196;8.096;2023-09-12T04:57:14;22.00;71.00
15983;DHT22;14442;50.196;8.096;2023-09-12T04:59:41;22.00;71.00
15983;DHT22;14442;50.196;8.096;2023-09-12T05:02:07;22.00;70.90
15983;DHT22;14442;50.196;8.096;2023-09-12T05:04:34;22.00;70.90
15983;DHT22;14442;50.196;8.096;2023-09-12T05:07:01;22.00;70.90
15983;DHT22;14442;50.196;8.096;2023-09-12T05:09:28;22.00;70.90
15983;DHT22;14442;50.196;8.096;2023-09-12T05:11:56;22.00;70.90
15983;DHT22;14442;50.196;8.096;2023-09-12T05:14:22;22.00;71.00
15983;DHT22;14442;50.196;8.096;2023-09-12T05:16:49;22.00;71.00
15983;DHT22;14442;50.196;8.096;2023-09-12T05:19:16;22.00;71.00
15983;DHT22;14442;50.196;8.096;2023-09-12T05:21:42;22.00;70.90
15983;DHT22;14442;50.196;8.096;2023-09-12T05:24:10;22.00;70.90
15983;DHT22;14442;50.196;8.096;2023-09-12T05:26:37;22.00;70.90
15983;DHT22;14442;50.196;8.096;2023-09-12T05:29:05;22.00;70.90
15983;DHT22;14442;50.196;8.096;2023-09-12T05:31:32;22.00;70.90
15983;DHT22;14442;50.196;8.096;2023-09-12T05:33:59;22.00;70.90
15983;DHT22;14442;50.196;8.096;2023-09-12T05:36:25;22.00;70.90
15983;DHT22;14442;50.196;8.096;2023-09-12T05:38:52;22.00;71.00
15983;DHT22;14442;50.196;8.096;2023-09-12T05:41:19;22.00;71.00
15983;DHT22;14442;50.196;8.096;2023-09-12T05:43:45;22.00;70.90
15983;DHT22;14442;50.196;8.096;2023-09-12T05:46:13;22.00;70.90
15983;DHT22;14442;50.196;8.096;2023-09-12T05:48:40;22.00;71.00
15983;DHT22;14442;50.196;8.096;2023-09-12T05:51:07;22.00;70.90
15983;DHT22;14442;50.196;8.096;2023-09-12T05:53:34;22.00;70.90
15983;DHT22;14442;50.196;8.096;2023-09-12T05:56:00;22.00;70.90
15983;DHT22;14442;50.196;8.096;2023-09-12T05:58:27;22.00;70.90
15983;DHT22;14442;50.196;8.096;2023-09-12T06:00:55;22.00;70.90
15983;DHT22;14442;50.196;8.096;2023-09-12T06:03:23;22.00;70.90
15983;DHT22;14442;50.196;8.096;2023-09-12T06:05:50;22.00;70.90
15983;DHT22;14442;50.196;8.096;2023-09-12T06:08:16;22.00;70.90
15983;DHT22;14442;50.196;8.096;2023-09-12T06:10:43;22.00;70.90
15983;DHT22;14442;50.196;8.096;2023-09-12T06:13:10;22.00;70.90
15983;DHT22;14442;50.196;8.096;2023-09-12T06:15:36;22.00;70.80
15983;DHT22;14442;50.196;8.096;2023-09-12T06:18:04;22.00;70.80
15983;DHT22;14442;50.196;8.096;2023-09-12T06:20:32;22.00;70.90
15983;DHT22;14442;50.196;8.096;2023-09-12T06:22:58;22.00;70.90
15983;DHT22;14442;50.196;8.096;2023-09-12T06:25:25;22.00;70.90
15983;DHT22;14442;50.196;8.096;2023-09-12T06:27:52;22.00;70.80
15983;DHT22;14442;50.196;8.096;2023-09-12T06:30:19;22.00;70.80
15983;DHT22;14442;50.196;8.096;2023-09-12T06:32:45;22.00;70.80
15983;DHT22;14442;50.196;8.096;2023-09-12T06:35:12;22.00;70.90
15983;DHT22;14442;50.196;8.096;2023-09-12T06:37:40;22.00;70.90
15983;DHT22;14442;50.196;8.096;2023-09-12T06:40:07;22.00;70.90
15983;DHT22;14442;50.196;8.096;2023-09-12T06:42:34;22.00;70.90
15983;DHT22;14442;50.196;8.096;2023-09-12T06:45:01;22.00;70.90
15983;DHT22;14442;50.196;8.096;2023-09-12T06:47:28;22.00;70.80
15983;DHT22;14442;50.196;8.096;2023-09-12T06:49:54;22.00;70.80
15983;DHT22;14442;50.196;8.096;2023-09-12T06:52:21;22.00;70.80
15983;DHT22;14442;50.196;8.096;2023-09-12T06:54:49;22.00;70.80
15983;DHT22;14442;50.196;8.096;2023-09-12T06:57:16;22.00;70.90
15983;DHT22;14442;50.196;8.096;2023-09-12T06:59:42;22.00;70.90
15983;DHT22;14442;50.196;8.096;2023-09-12T07:02:09;22.00;70.80
15983;DHT22;14442;50.196;8.096;2023-09-12T07:04:38;22.00;70.90
15983;DHT22;14442;50.196;8.096;2023-09-12T07:07:04;22.00;70.80
15983;DHT22;14442;50.196;8.096;2023-09-12T07:09:31;22.00;70.90
15983;DHT22;14442;50.196;8.096;2023-09-12T07:12:00;22.00;70.90
15983;DHT22;14442;50.196;8.096;2023-09-12T07:14:26;22.00;70.90
15983;DHT22;14442;50.196;8.096;2023-09-12T07:16:55;22.00;70.90
15983;DHT22;14442;50.196;8.096;2023-09-12T07:19:21;22.00;70.90
15983;DHT22;14442;50.196;8.096;2023-09-12T07:21:48;22.00;70.80
15983;DHT22;14442;50.196;8.096;2023-09-12T07:24:15;22.00;70.80
15983;DHT22;14442;50.196;8.096;2023-09-12T07:26:41;22.00;71.20
15983;DHT22;14442;50.196;8.096;2023-09-12T07:29:09;22.00;70.80
15983;DHT22;14442;50.196;8.096;2023-09-12T07:31:36;22.00;70.90
15983;DHT22;14442;50.196;8.096;2023-09-12T07:34:03;22.10;71.00
15983;DHT22;14442;50.196;8.096;2023-09-12T07:36:29;22.10;71.10
15983;DHT22;14442;50.196;8.096;2023-09-12T07:38:56;22.10;71.20
15983;DHT22;14442;50.196;8.096;2023-09-12T07:41:23;22.10;71.40
15983;DHT22;14442;50.196;8.096;2023-09-12T07:43:49;22.10;71.50
15983;DHT22;14442;50.196;8.096;2023-09-12T07:46:17;22.10;71.70
15983;DHT22;14442;50.196;8.096;2023-09-12T07:48:44;22.10;71.80
15983;DHT22;14442;50.196;8.096;2023-09-12T07:51:12;22.10;72.00
15983;DHT22;14442;50.196;8.096;2023-09-12T07:53:39;22.20;72.00
15983;DHT22;14442;50.196;8.096;2023-09-12T07:56:07;22.10;71.70
15983;DHT22;14442;50.196;8.096;2023-09-12T07:58:35;22.10;71.50
15983;DHT22;14442;50.196;8.096;2023-09-12T08:01:05;22.10;71.50
15983;DHT22;14442;50.196;8.096;2023-09-12T08:03:33;22.00;71.50
15983;DHT22;14442;50.196;8.096;2023-09-12T08:06:00;22.10;72.00
15983;DHT22;14442;50.196;8.096;2023-09-12T08:08:26;22.00;72.10
15983;DHT22;14442;50.196;8.096;2023-09-12T08:10:53;22.10;72.40
15983;DHT22;14442;50.196;8.096;2023-09-12T08:13:20;22.20;72.40
15983;DHT22;14442;50.196;8.096;2023-09-12T08:15:47;22.30;72.40
15983;DHT22;14442;50.196;8.096;2023-09-12T08:18:14;22.30;72.40
15983;DHT22;14442;50.196;8.096;2023-09-12T08:20:42;22.30;72.40
15983;DHT22;14442;50.196;8.096;2023-09-12T08:23:09;22.30;72.50
15983;DHT22;14442;50.196;8.096;2023-09-12T08:25:36;22.30;72.60
15983;DHT22;14442;50.196;8.096;2023-09-12T08:28:03;22.30;72.20
15983;DHT22;14442;50.196;8.096;2023-09-12T08:30:30;22.30;72.30
15983;DHT22;14442;50.196;8.096;2023-09-12T08:32:58;22.40;72.30
15983;DHT22;14442;50.196;8.096;2023-09-12T08:35:27;22.40;72.40
15983;DHT22;14442;50.196;8.096;2023-09-12T08:37:55;22.40;72.50
15983;DHT22;14442;50.196;8.096;2023-09-12T08:40:22;22.40;72.60
15983;DHT22;14442;50.196;8.096;2023-09-12T08:42:51;22.40;72.50
15983;DHT22;14442;50.196;8.096;2023-09-12T08:45:19;22.40;72.60
15983;DHT22;14442;50.196;8.096;2023-09-12T08:47:49;22.40;72.50
15983;DHT22;14442;50.196;8.096;2023-09-12T08:50:16;22.40;72.50
15983;DHT22;14442;50.196;8.096;2023-09-12T08:52:44;22.40;72.40
15983;DHT22;14442;50.196;8.096;2023-09-12T08:55:12;22.40;72.60
15983;DHT22;14442;50.196;8.096;2023-09-12T08:57:41;22.40;72.60
15983;DHT22;14442;50.196;8.096;2023-09-12T09:00:09;22.40;72.70
15983;DHT22;14442;50.196;8.096;2023-09-12T09:02:38;22.40;72.70
15983;DHT22;14442;50.196;8.096;2023-09-12T09:05:06;22.40;72.80
15983;DHT22;14442;50.196;8.096;2023-09-12T09:07:35;22.40;72.80
15983;DHT22;14442;50.196;8.096;2023-09-12T09:10:04;22.50;72.80
15983;DHT22;14442;50.196;8.096;2023-09-12T09:12:33;22.50;72.70
15983;DHT22;14442;50.196;8.096;2023-09-12T09:15:20;22.50;72.70
15983;DHT22;14442;50.196;8.096;2023-09-12T09:17:46;22.50;72.70
15983;DHT22;14442;50.196;8.096;2023-09-12T09:20:21;22.50;72.70
15983;DHT22;14442;50.196;8.096;2023-09-12T09:22:56;22.50;72.70
15983;DHT22;14442;50.196;8.096;2023-09-12T09:25:23;22.50;72.80
15983;DHT22;14442;50.196;8.096;2023-09-12T09:27:51;22.50;72.70
15983;DHT22;14442;50.196;8.096;2023-09-12T09:30:18;22.50;72.60
15983;DHT22;14442;50.196;8.096;2023-09-12T09:32:45;22.50;72.60
15983;DHT22;14442;50.196;8.096;2023-09-12T09:35:13;22.50;72.60
15983;DHT22;14442;50.196;8.096;2023-09-12T09:37:41;22.50;72.50
15983;DHT22;14442;50.196;8.096;2023-09-12T09:40:08;22.60;72.50
15983;DHT22;14442;50.196;8.096;2023-09-12T09:42:35;22.60;72.50
15983;DHT22;14442;50.196;8.096;2023-09-12T09:45:05;22.60;72.40
15983;DHT22;14442;50.196;8.096;2023-09-12T09:47:33;22.60;72.40
15983;DHT22;14442;50.196;8.096;2023-09-12T09:50:00;22.60;72.40
15983;DHT22;14442;50.196;8.096;2023-09-12T09:52:27;22.60;72.30
15983;DHT22;14442;50.196;8.096;2023-09-12T09:54:54;22.60;72.30
15983;DHT22;14442;50.196;8.096;2023-09-12T09:57:20;22.60;72.20
15983;DHT22;14442;50.196;8.096;2023-09-12T09:59:51;22.70;72.20
15983;DHT22;14442;50.196;8.096;2023-09-12T10:02:22;22.70;72.20
15983;DHT22;14442;50.196;8.096;2023-09-12T10:04:52;22.70;72.20
15983;DHT22;14442;50.196;8.096;2023-09-12T10:07:20;22.70;72.20
15983;DHT22;14442;50.196;8.096;2023-09-12T10:09:48;22.70;72.00
15983;DHT22;14442;50.196;8.096;2023-09-12T10:12:15;22.80;72.00
15983;DHT22;14442;50.196;8.096;2023-09-12T10:14:43;22.70;72.00
15983;DHT22;14442;50.196;8.096;2023-09-12T10:17:13;22.70;71.90
15983;DHT22;14442;50.196;8.096;2023-09-12T10:19:47;22.70;71.80
15983;DHT22;14442;50.196;8.096;2023-09-12T10:22:21;22.70;71.90
15983;DHT22;14442;50.196;8.096;2023-09-12T10:24:50;22.70;71.90
15983;DHT22;14442;50.196;8.096;2023-09-12T10:27:19;22.70;71.90
15983;DHT22;14442;50.196;8.096;2023-09-12T10:29:46;22.70;72.00
15983;DHT22;14442;50.196;8.096;2023-09-12T10:32:17;22.70;71.90
15983;DHT22;14442;50.196;8.096;2023-09-12T10:34:46;22.70;71.90
15983;DHT22;14442;50.196;8.096;2023-09-12T10:37:16;22.70;71.90
15983;DHT22;14442;50.196;8.096;2023-09-12T10:39:43;22.70;71.80
15983;DHT22;14442;50.196;8.096;2023-09-12T10:42:10;22.70;71.80
15983;DHT22;14442;50.196;8.096;2023-09-12T10:44:38;22.70;71.80
15983;DHT22;14442;50.196;8.096;2023-09-12T10:47:05;22.70;71.70
15983;DHT22;14442;50.196;8.096;2023-09-12T10:49:32;22.80;71.70
15983;DHT22;14442;50.196;8.096;2023-09-12T10:52:00;22.80;71.70
15983;DHT22;14442;50.196;8.096;2023-09-12T10:54:36;22.80;71.60
15983;DHT22;14442;50.196;8.096;2023-09-12T10:57:04;22.80;71.50
15983;DHT22;14442;50.196;8.096;2023-09-12T10:59:31;22.80;72.10
15983;DHT22;14442;50.196;8.096;2023-09-12T11:02:27;22.80;71.30
15983;DHT22;14442;50.196;8.096;2023-09-12T11:04:54;22.90;71.40
15983;DHT22;14442;50.196;8.096;2023-09-12T11:07:32;22.90;71.30
15983;DHT22;14442;50.196;8.096;2023-09-12T11:10:18;22.90;71.30
15983;DHT22;14442;50.196;8.096;2023-09-12T11:12:46;22.90;71.20
15983;DHT22;14442;50.196;8.096;2023-09-12T11:15:14;22.90;71.30
15983;DHT22;14442;50.196;8.096;2023-09-12T11:17:42;22.90;71.20
15983;DHT22;14442;50.196;8.096;2023-09-12T11:20:10;22.90;71.20
15983;DHT22;14442;50.196;8.096;2023-09-12T11:22:39;22.90;71.20
15983;DHT22;14442;50.196;8.096;2023-09-12T11:25:16;22.90;71.20
15983;DHT22;14442;50.196;8.096;2023-09-12T11:27:45;22.90;71.90
15983;DHT22;14442;50.196;8.096;2023-09-12T11:30:13;22.90;71.30
15983;DHT22;14442;50.196;8.096;2023-09-12T11:32:40;22.90;71.10
15983;DHT22;14442;50.196;8.096;2023-09-12T11:35:07;22.90;71.10
15983;DHT22;14442;50.196;8.096;2023-09-12T11:37:35;22.90;71.20
15983;DHT22;14442;50.196;8.096;2023-09-12T11:40:16;22.90;71.20
15983;DHT22;14442;50.196;8.096;2023-09-12T11:42:43;22.90;71.20
15983;DHT22;14442;50.196;8.096;2023-09-12T11:45:12;22.90;71.20
15983;DHT22;14442;50.196;8.096;2023-09-12T11:47:40;22.90;71.20
15983;DHT22;14442;50.196;8.096;2023-09-12T11:50:08;22.90;71.10
15983;DHT22;14442;50.196;8.096;2023-09-12T11:52:36;22.90;71.10
15983;DHT22;14442;50.196;8.096;2023-09-12T11:55:06;22.90;71.20
15983;DHT22;14442;50.196;8.096;2023-09-12T11:57:33;22.90;71.10
15983;DHT22;14442;50.196;8.096;2023-09-12T12:00:03;22.90;71.10
15983;DHT22;14442;50.196;8.096;2023-09-12T12:02:33;22.90;71.00
15983;DHT22;14442;50.196;8.096;2023-09-12T12:05:01;22.90;71.00
15983;DHT22;14442;50.196;8.096;2023-09-12T12:07:29;22.90;71.00
15983;DHT22;14442;50.196;8.096;2023-09-12T12:09:56;22.90;71.70
15983;DHT22;14442;50.196;8.096;2023-09-12T12:12:24;23.00;71.00
15983;DHT22;14442;50.196;8.096;2023-09-12T12:14:51;22.90;70.80
15983;DHT22;14442;50.196;8.096;2023-09-12T12:17:18;23.00;70.90
15983;DHT22;14442;50.196;8.096;2023-09-12T12:19:45;23.00;70.80
15983;DHT22;14442;50.196;8.096;2023-09-12T12:22:12;23.00;70.80
15983;DHT22;14442;50.196;8.096;2023-09-12T12:24:40;23.00;70.80
15983;DHT22;14442;50.196;8.096;2023-09-12T12:27:07;23.00;70.80
15983;DHT22;14442;50.196;8.096;2023-09-12T12:29:37;23.00;70.80
15983;DHT22;14442;50.196;8.096;2023-09-12T12:32:05;23.00;70.80
15983;DHT22;14442;50.196;8.096;2023-09-12T12:34:34;23.10;70.90
15983;DHT22;14442;50.196;8.096;2023-09-12T12:37:01;23.10;70.80
15983;DHT22;14442;50.196;8.096;2023-09-12T12:39:27;23.10;70.80
15983;DHT22;14442;50.196;8.096;2023-09-12T12:41:54;23.10;70.60
15983;DHT22;14442;50.196;8.096;2023-09-12T12:44:22;23.20;70.70
15983;DHT22;14442;50.196;8.096;2023-09-12T12:46:50;23.20;70.60
15983;DHT22;14442;50.196;8.096;2023-09-12T12:49:17;23.20;70.50
15983;DHT22;14442;50.196;8.096;2023-09-12T12:51:45;23.30;70.50
15983;DHT22;14442;50.196;8.096;2023-09-12T12:54:12;23.30;70.50
15983;DHT22;14442;50.196;8.096;2023-09-12T12:56:39;23.30;70.40
15983;DHT22;14442;50.196;8.096;2023-09-12T12:59:07;23.30;70.40
15983;DHT22;14442;50.196;8.096;2023-09-12T13:01:35;23.30;70.40
15983;DHT22;14442;50.196;8.096;2023-09-12T13:04:06;23.40;70.40
15983;DHT22;14442;50.196;8.096;2023-09-12T13:06:33;23.40;70.40
15983;DHT22;14442;50.196;8.096;2023-09-12T13:09:02;23.40;70.30
15983;DHT22;14442;50.196;8.096;2023-09-12T13:11:31;23.40;70.30
15983;DHT22;14442;50.196;8.096;2023-09-12T13:13:58;23.40;70.30
15983;DHT22;14442;50.196;8.096;2023-09-12T13:16:25;23.50;70.30
15983;DHT22;14442;50.196;8.096;2023-09-12T13:18:52;23.50;70.30
15983;DHT22;14442;50.196;8.096;2023-09-12T13:21:20;23.50;70.20
15983;DHT22;14442;50.196;8.096;2023-09-12T13:23:46;23.50;70.20
15983;DHT22;14442;50.196;8.096;2023-09-12T13:26:13;23.60;70.30
15983;DHT22;14442;50.196;8.096;2023-09-12T13:28:40;23.60;70.20
15983;DHT22;14442;50.196;8.096;2023-09-12T13:31:07;23.60;70.20
15983;DHT22;14442;50.196;8.096;2023-09-12T13:33:33;23.60;70.10
15983;DHT22;14442;50.196;8.096;2023-09-12T13:36:01;23.60;70.10
15983;DHT22;14442;50.196;8.096;2023-09-12T13:38:29;23.60;70.20
15983;DHT22;14442;50.196;8.096;2023-09-12T13:40:55;23.60;70.30
15983;DHT22;14442;50.196;8.096;2023-09-12T13:43:22;23.60;70.40
15983;DHT22;14442;50.196;8.096;2023-09-12T13:45:49;23.60;70.40
15983;DHT22;14442;50.196;8.096;2023-09-12T13:48:16;23.60;70.40
15983;DHT22;14442;50.196;8.096;2023-09-12T13:50:43;23.70;70.50
15983;DHT22;14442;50.196;8.096;2023-09-12T13:53:10;23.60;70.50
15983;DHT22;14442;50.196;8.096;2023-09-12T13:55:38;23.60;70.50
15983;DHT22;14442;50.196;8.096;2023-09-12T13:58:05;23.70;70.60
15983;DHT22;14442;50.196;8.096;2023-09-12T14:00:33;23.70;70.60
15983;DHT22;14442;50.196;8.096;2023-09-12T14:03:01;23.60;70.60
15983;DHT22;14442;50.196;8.096;2023-09-12T14:05:28;23.60;70.60
15983;DHT22;14442;50.196;8.096;2023-09-12T14:07:55;23.60;70.70
15983;DHT22;14442;50.196;8.096;2023-09-12T14:10:21;23.60;70.70
15983;DHT22;14442;50.196;8.096;2023-09-12T14:12:49;23.60;70.70
15983;DHT22;14442;50.196;8.096;2023-09-12T14:15:16;23.60;70.70
15983;DHT22;14442;50.196;8.096;2023-09-12T14:17:43;23.60;70.60
15983;DHT22;14442;50.196;8.096;2023-09-12T14:20:10;23.70;70.70
15983;DHT22;14442;50.196;8.096;2023-09-12T14:22:41;23.60;70.60
15983;DHT22;14442;50.196;8.096;2023-09-12T14:25:08;23.70;70.70
15983;DHT22;14442;50.196;8.096;2023-09-12T14:27:40;23.70;70.70
15983;DHT22;14442;50.196;8.096;2023-09-12T14:30:10;23.70;71.00
15983;DHT22;14442;50.196;8.096;2023-09-12T14:32:37;23.70;70.80
15983;DHT22;14442;50.196;8.096;2023-09-12T14:35:04;23.60;70.70
15983;DHT22;14442;50.196;8.096;2023-09-12T14:37:31;23.60;70.80
15983;DHT22;14442;50.196;8.096;2023-09-12T14:39:58;23.70;70.80
15983;DHT22;14442;50.196;8.096;2023-09-12T14:42:24;23.70;70.80
15983;DHT22;14442;50.196;8.096;2023-09-12T14:44:51;23.70;70.80
15983;DHT22;14442;50.196;8.096;2023-09-12T14:47:19;23.70;70.60
15983;DHT22;14442;50.196;8.096;2023-09-12T14:49:46;23.80;70.60
15983;DHT22;14442;50.196;8.096;2023-09-12T14:52:13;23.90;70.60
15983;DHT22;14442;50.196;8.096;2023-09-12T14:54:39;23.90;70.40
15983;DHT22;14442;50.196;8.096;2023-09-12T14:57:06;24.00;70.40
15983;DHT22;14442;50.196;8.096;2023-09-12T14:59:33;24.00;70.40
15983;DHT22;14442;50.196;8.096;2023-09-12T15:01:59;24.00;70.40
15983;DHT22;14442;50.196;8.096;2023-09-12T15:04:27;24.00;70.40
15983;DHT22;14442;50.196;8.096;2023-09-12T15:06:54;24.10;70.50
15983;DHT22;14442;50.196;8.096;2023-09-12T15:09:21;24.10;70.40
15983;DHT22;14442;50.196;8.096;2023-09-12T15:11:47;24.10;70.50
15983;DHT22;14442;50.196;8.096;2023-09-12T15:14:15;24.10;70.60
15983;DHT22;14442;50.196;8.096;2023-09-12T15:16:42;24.10;70.60
15983;DHT22;14442;50.196;8.096;2023-09-12T15:19:09;24.00;70.60
15983;DHT22;14442;50.196;8.096;2023-09-12T15:21:37;24.10;70.80
15983;DHT22;14442;50.196;8.096;2023-09-12T15:24:04;24.00;70.70
15983;DHT22;14442;50.196;8.096;2023-09-12T15:26:31;24.00;70.80
15983;DHT22;14442;50.196;8.096;2023-09-12T15:28:57;23.90;70.80
15983;DHT22;14442;50.196;8.096;2023-09-12T15:31:26;23.90;70.80
15983;DHT22;14442;50.196;8.096;2023-09-12T15:33:53;23.90;70.80